Portada
METAR-TAF:

METAR-TAF

Aeroports :

Cloncurry, Austràlia

latitud: 20-40-07S, longitud: 140-30-16E, altitud: 188 m

Observació

L'informe es va fer fa 51 minuts, a les 10:00 UTC
Vent 5 kt del Sud-Est
Temperatura 19°C
Humitat 12%
Pressió 1015 hPa

METAR: YCCY 161000Z AUTO 14005KT //// // ////// 19/M11 Q1015

Hora: 20:51 (10:51 UTC)


TAF: manca

Observacions i pronòstics meteorològics de més de 4000 aeroports (METAR i TAF).

Les estacions disponibles són els punts grocs i vermells al mapa.

Posi el ratolí al punt desitjat per veure el nom de l'estació.

Feu clic per veure les observacions i els pronòstics meteorològics.

Per canviar el mapa: feu clic els botons verds amb una creu de color negre per apropar; al botó verd amb un guió per allunyar la imatge; o en les fletxes verdes per a mapes adjacents.


METAR-TAF: